createdAt,value
2022-11-19T00:01:15.558Z,1.30
2022-11-19T00:03:42.822Z,1.20
2022-11-19T00:06:23.351Z,1.40
2022-11-19T00:08:50.110Z,1.47
2022-11-19T00:11:37.355Z,2.00
2022-11-19T00:14:04.359Z,1.27
2022-11-19T00:16:30.759Z,1.52
2022-11-19T00:18:57.096Z,1.80
2022-11-19T00:21:23.450Z,1.70
2022-11-19T00:23:53.440Z,2.20
2022-11-19T00:26:19.826Z,1.75
2022-11-19T00:28:46.172Z,1.67
2022-11-19T00:31:14.473Z,1.77
2022-11-19T00:33:42.242Z,1.63
2022-11-19T00:36:11.169Z,1.70
2022-11-19T00:38:37.923Z,1.90
2022-11-19T00:41:04.748Z,1.60
2022-11-19T00:43:49.882Z,1.50
2022-11-19T00:46:30.009Z,1.47
2022-11-19T00:48:58.361Z,1.27
2022-11-19T00:51:27.571Z,1.20
2022-11-19T00:53:54.538Z,1.58
2022-11-19T00:56:23.025Z,1.50
2022-11-19T00:58:49.708Z,1.30
2022-11-19T01:01:17.605Z,1.23
2022-11-19T01:03:47.267Z,1.63
2022-11-19T01:06:19.139Z,1.45
2022-11-19T01:08:47.613Z,1.50
2022-11-19T01:11:29.521Z,1.93
2022-11-19T01:13:56.836Z,1.65
2022-11-19T01:16:38.821Z,2.00
2022-11-19T01:19:07.321Z,1.90
2022-11-19T01:21:35.211Z,1.80
2022-11-19T01:24:02.399Z,1.40
2022-11-19T01:26:29.690Z,1.58
2022-11-19T01:28:57.833Z,1.52
2022-11-19T01:31:29.514Z,1.80
2022-11-19T01:33:56.497Z,1.42
2022-11-19T01:36:26.160Z,1.70
2022-11-19T01:38:54.239Z,2.10
2022-11-19T01:41:28.787Z,2.00
2022-11-19T01:44:00.707Z,2.20
2022-11-19T01:46:30.842Z,2.30
2022-11-19T01:49:11.044Z,2.67
2022-11-19T01:51:43.938Z,2.85
2022-11-19T01:54:43.526Z,2.80
2022-11-19T01:57:13.284Z,3.28
2022-11-19T01:59:41.612Z,3.80
2022-11-19T02:02:08.022Z,4.60
2022-11-19T02:04:35.517Z,4.30
2022-11-19T02:07:02.519Z,4.10
2022-11-19T02:09:29.576Z,4.82
2022-11-19T02:12:22.730Z,4.60
2022-11-19T02:14:55.353Z,4.53
2022-11-19T02:18:03.375Z,5.50
2022-11-19T02:20:44.816Z,4.50
2022-11-19T02:23:29.800Z,3.88
2022-11-19T02:26:19.310Z,4.18
2022-11-19T02:29:18.206Z,3.77
2022-11-19T02:31:57.070Z,3.78
2022-11-19T02:34:36.032Z,3.13
2022-11-19T02:37:14.167Z,0.98
2022-11-19T02:39:57.086Z,0.77
2022-11-19T02:42:50.278Z,0.70
2022-11-19T02:45:22.731Z,0.50
2022-11-19T02:48:06.758Z,0.50
2022-11-19T02:50:52.634Z,0.28
2022-11-19T02:53:19.071Z,0.30
2022-11-19T02:56:04.314Z,0.30
2022-11-19T02:58:51.002Z,0.40
2022-11-19T03:01:43.283Z,0.30
2022-11-19T03:04:30.703Z,0.35
2022-11-19T03:07:06.982Z,0.35
2022-11-19T03:09:36.104Z,0.30
2022-11-19T03:12:24.560Z,0.30
2022-11-19T03:15:16.420Z,0.30
2022-11-19T03:18:07.305Z,0.30
2022-11-19T03:20:50.436Z,0.20
2022-11-19T03:23:24.854Z,0.20
2022-11-19T03:25:58.616Z,0.20
2022-11-19T03:28:32.075Z,0.22
2022-11-19T03:31:00.876Z,0.30
2022-11-19T03:33:33.750Z,0.32
2022-11-19T03:36:06.100Z,0.20
2022-11-19T03:38:38.402Z,0.30
2022-11-19T03:41:07.071Z,0.30
2022-11-19T03:43:38.607Z,0.20
2022-11-19T03:46:09.045Z,0.20
2022-11-19T03:48:37.446Z,0.30
2022-11-19T03:51:21.713Z,0.20
2022-11-19T03:53:48.999Z,0.28
2022-11-19T03:56:21.368Z,0.20
2022-11-19T03:58:48.367Z,0.25
2022-11-19T04:01:15.766Z,0.10
2022-11-19T04:04:02.167Z,0.30
2022-11-19T04:06:28.518Z,0.30
2022-11-19T04:08:54.878Z,0.30
2022-11-19T04:13:46.502Z,0.63
2022-11-19T04:16:12.845Z,0.98
2022-11-19T04:18:39.207Z,0.70
2022-11-19T04:21:05.667Z,0.63
2022-11-19T04:23:32.040Z,0.60
2022-11-19T04:25:58.390Z,0.60
2022-11-19T04:28:24.756Z,0.63
2022-11-19T04:30:51.106Z,0.63
2022-11-19T04:33:17.791Z,0.60
2022-11-19T04:35:45.282Z,0.43
2022-11-19T04:38:11.698Z,0.30
2022-11-19T04:40:39.147Z,0.25
2022-11-19T04:43:05.496Z,0.30
2022-11-19T04:45:31.942Z,0.30
2022-11-19T04:47:58.308Z,0.22
2022-11-19T04:50:24.676Z,0.30
2022-11-19T04:52:51.049Z,0.20
2022-11-19T04:55:17.455Z,0.27
2022-11-19T04:57:43.796Z,0.30
2022-11-19T05:00:10.725Z,0.30
2022-11-19T05:02:37.076Z,0.28
2022-11-19T05:05:03.773Z,0.28
2022-11-19T05:07:30.312Z,0.20
2022-11-19T05:09:56.722Z,0.20
2022-11-19T05:12:23.086Z,0.28
2022-11-19T05:14:49.443Z,0.22
2022-11-19T05:17:15.842Z,0.40
2022-11-19T05:19:42.209Z,0.23
2022-11-19T05:22:08.567Z,0.20
2022-11-19T05:24:34.941Z,0.40
2022-11-19T05:27:01.322Z,0.30
2022-11-19T05:29:27.673Z,0.30
2022-11-19T05:31:54.258Z,0.30
2022-11-19T05:34:20.644Z,0.30
2022-11-19T05:36:47.256Z,0.40
2022-11-19T05:39:20.277Z,0.60
2022-11-19T05:41:48.155Z,0.80
2022-11-19T05:44:14.508Z,0.60
2022-11-19T05:46:40.863Z,0.60
2022-11-19T05:49:07.270Z,0.50
2022-11-19T05:51:33.621Z,0.60
2022-11-19T05:54:00.040Z,0.40
2022-11-19T05:56:26.666Z,0.40
2022-11-19T05:58:53.031Z,0.30
2022-11-19T06:01:27.022Z,0.57
2022-11-19T06:03:53.563Z,0.50
2022-11-19T06:06:20.598Z,0.47
2022-11-19T06:08:47.788Z,0.40
2022-11-19T06:11:32.861Z,0.40
2022-11-19T06:14:00.357Z,0.60
2022-11-19T06:16:27.759Z,0.50
2022-11-19T06:18:54.374Z,0.40
2022-11-19T06:21:20.852Z,0.57
2022-11-19T06:23:47.261Z,0.30
2022-11-19T06:26:22.527Z,0.43
2022-11-19T06:28:48.877Z,0.50
2022-11-19T06:31:15.399Z,0.50
2022-11-19T06:33:41.757Z,0.70
2022-11-19T06:36:08.765Z,0.88
2022-11-19T06:38:35.277Z,0.60
2022-11-19T06:41:01.728Z,0.90
2022-11-19T06:43:28.960Z,0.70
2022-11-19T06:45:55.667Z,1.00
2022-11-19T06:48:22.424Z,1.55
2022-11-19T06:50:48.920Z,1.77
2022-11-19T06:53:15.572Z,0.80
2022-11-19T06:55:41.995Z,0.90
2022-11-19T06:58:09.061Z,1.33
2022-11-19T07:00:35.871Z,0.82
2022-11-19T07:03:02.715Z,0.77
2022-11-19T07:05:29.139Z,0.70
2022-11-19T07:08:00.111Z,0.63
2022-11-19T07:10:29.075Z,0.60
2022-11-19T07:12:55.460Z,0.88
2022-11-19T07:15:21.806Z,0.98
2022-11-19T07:17:48.761Z,1.10
2022-11-19T07:20:15.231Z,1.02
2022-11-19T07:22:42.290Z,1.77
2022-11-19T07:25:12.823Z,1.00
2022-11-19T07:27:40.417Z,1.00
2022-11-19T07:30:07.761Z,1.60
2022-11-19T07:32:34.494Z,1.10
2022-11-19T07:35:00.901Z,1.00
2022-11-19T07:37:27.466Z,0.90
2022-11-19T07:39:53.830Z,1.20
2022-11-19T07:42:38.784Z,0.70
2022-11-19T07:45:05.856Z,0.70
2022-11-19T07:47:33.911Z,0.70
2022-11-19T07:50:00.286Z,0.88
2022-11-19T07:52:26.704Z,1.17
2022-11-19T07:54:53.058Z,1.33
2022-11-19T07:57:20.070Z,3.40
2022-11-19T07:59:46.434Z,1.63
2022-11-19T08:02:13.537Z,1.77
2022-11-19T08:04:40.009Z,1.23
2022-11-19T08:07:06.831Z,1.10
2022-11-19T08:09:33.604Z,1.00
2022-11-19T08:12:00.048Z,1.07
2022-11-19T08:14:26.382Z,1.30
2022-11-19T08:17:11.478Z,1.40
2022-11-19T08:19:37.843Z,1.80
2022-11-19T08:22:04.212Z,1.33
2022-11-19T08:24:30.599Z,1.00
2022-11-19T08:26:57.026Z,1.00
2022-11-19T08:29:23.748Z,1.20
2022-11-19T08:31:50.998Z,1.50
2022-11-19T08:34:18.078Z,1.10
2022-11-19T08:36:44.698Z,1.00
2022-11-19T08:39:11.390Z,1.02
2022-11-19T08:41:56.400Z,1.00
2022-11-19T08:44:22.988Z,0.70
2022-11-19T08:46:50.518Z,1.38
2022-11-19T08:49:17.399Z,2.03
2022-11-19T08:51:43.798Z,2.65
2022-11-19T08:54:10.295Z,2.30
2022-11-19T08:56:36.815Z,1.50
2022-11-19T08:59:03.586Z,1.88
2022-11-19T09:01:30.547Z,1.43
2022-11-19T09:03:56.986Z,0.60
2022-11-19T09:06:23.402Z,0.60
2022-11-19T09:08:49.778Z,1.38
2022-11-19T09:11:17.818Z,1.30
2022-11-19T09:13:44.330Z,1.20
2022-11-19T09:16:11.730Z,1.27
2022-11-19T09:18:39.990Z,0.90
2022-11-19T09:21:08.476Z,1.20
2022-11-19T09:23:35.006Z,1.10
2022-11-19T09:26:07.496Z,1.30
2022-11-19T09:28:34.463Z,1.50
2022-11-19T09:31:21.075Z,1.95
2022-11-19T09:33:49.934Z,1.58
2022-11-19T09:36:17.675Z,1.70
2022-11-19T09:38:44.105Z,1.10
2022-11-19T09:41:23.006Z,2.00
2022-11-19T09:43:58.153Z,1.30
2022-11-19T09:46:37.959Z,0.90
2022-11-19T09:49:10.403Z,1.38
2022-11-19T09:51:39.717Z,1.20
2022-11-19T09:54:12.311Z,1.40
2022-11-19T09:56:42.723Z,2.22
2022-11-19T09:59:23.945Z,5.72
2022-11-19T10:01:50.278Z,2.05
2022-11-19T10:04:22.352Z,2.07
2022-11-19T10:07:03.258Z,2.50
2022-11-19T10:09:49.299Z,1.27
2022-11-19T10:12:24.682Z,1.40
2022-11-19T10:15:25.215Z,4.32
2022-11-19T10:18:03.697Z,2.10
2022-11-19T10:20:52.940Z,2.25
2022-11-19T10:23:25.080Z,1.67
2022-11-19T10:26:00.037Z,1.55
2022-11-19T10:28:32.723Z,1.80
2022-11-19T10:31:08.858Z,1.60
2022-11-19T10:33:42.697Z,2.25
2022-11-19T10:36:14.382Z,1.92
2022-11-19T10:39:07.379Z,3.58
2022-11-19T10:41:40.535Z,2.38
2022-11-19T10:44:40.599Z,2.77
2022-11-19T10:47:13.479Z,2.30
2022-11-19T10:49:41.912Z,2.40
2022-11-19T10:52:31.641Z,4.68
2022-11-19T10:55:23.394Z,2.40
2022-11-19T10:57:56.184Z,6.93
2022-11-19T11:00:22.634Z,2.10
2022-11-19T11:02:58.764Z,1.88
2022-11-19T11:05:25.252Z,2.85
2022-11-19T11:07:54.457Z,2.88
2022-11-19T11:10:34.451Z,2.73
2022-11-19T11:13:56.372Z,2.72
2022-11-19T11:16:39.319Z,3.17
2022-11-19T11:19:13.738Z,2.63
2022-11-19T11:21:42.845Z,2.92
2022-11-19T11:24:11.734Z,2.60
2022-11-19T11:26:38.646Z,3.35
2022-11-19T11:29:13.941Z,4.18
2022-11-19T11:31:47.567Z,3.80
2022-11-19T11:34:25.858Z,3.65
2022-11-19T11:36:53.552Z,3.50
2022-11-19T11:39:36.340Z,3.63
2022-11-19T11:42:06.314Z,3.28
2022-11-19T11:44:36.816Z,3.85
2022-11-19T11:47:11.984Z,3.60
2022-11-19T11:49:47.013Z,3.00
2022-11-19T11:52:25.398Z,4.85
2022-11-19T11:55:00.908Z,7.78
2022-11-19T11:57:30.728Z,5.82
2022-11-19T11:59:57.650Z,3.60
2022-11-19T12:02:32.391Z,4.83
2022-11-19T12:05:04.691Z,4.78
2022-11-19T12:07:42.604Z,3.80
2022-11-19T12:10:15.484Z,4.43
2022-11-19T12:12:57.108Z,4.20
2022-11-19T12:15:34.326Z,4.07
2022-11-19T12:18:25.771Z,5.50
2022-11-19T12:21:11.898Z,6.07
2022-11-19T12:24:02.284Z,4.63
2022-11-19T12:26:50.406Z,4.55
2022-11-19T12:29:33.290Z,4.50
2022-11-19T12:32:17.022Z,4.07
2022-11-19T12:35:03.988Z,4.32
2022-11-19T12:37:42.897Z,3.58
2022-11-19T12:40:24.371Z,3.65
2022-11-19T12:43:08.245Z,4.73
2022-11-19T12:46:18.904Z,5.53
2022-11-19T12:49:22.505Z,4.88
2022-11-19T12:52:07.756Z,4.70
2022-11-19T12:55:09.702Z,3.97
2022-11-19T12:57:57.585Z,4.30
2022-11-19T13:00:26.228Z,4.10
2022-11-19T13:03:12.557Z,4.85
2022-11-19T13:05:53.024Z,5.15
2022-11-19T13:08:40.936Z,5.75
2022-11-19T13:11:28.533Z,5.83
2022-11-19T13:13:59.948Z,4.55
2022-11-19T13:16:28.741Z,4.50
2022-11-19T13:19:08.900Z,4.88
2022-11-19T13:21:45.691Z,3.55
2022-11-19T13:24:37.175Z,3.83
2022-11-19T13:27:06.260Z,4.57
2022-11-19T13:29:47.697Z,3.97
2022-11-19T13:32:34.543Z,3.90
2022-11-19T13:35:17.082Z,3.67
2022-11-19T13:38:02.199Z,4.13
2022-11-19T13:40:37.037Z,4.45
2022-11-19T13:43:31.991Z,4.43
2022-11-19T13:46:15.317Z,3.35
2022-11-19T13:48:56.617Z,3.30
2022-11-19T13:51:37.044Z,3.00
2022-11-19T13:54:06.059Z,3.15
2022-11-19T13:56:58.900Z,3.30
2022-11-19T13:59:38.101Z,3.35
2022-11-19T14:02:19.629Z,3.67
2022-11-19T14:05:04.358Z,3.23
2022-11-19T14:07:55.203Z,3.72
2022-11-19T14:10:37.682Z,3.08
2022-11-19T14:13:37.627Z,3.20
2022-11-19T14:16:34.019Z,3.53
2022-11-19T14:19:28.975Z,4.23
2022-11-19T14:22:14.396Z,3.63
2022-11-19T14:24:59.049Z,3.20
2022-11-19T14:27:33.001Z,3.42
2022-11-19T14:30:09.652Z,3.50
2022-11-19T14:32:44.002Z,3.27
2022-11-19T14:35:35.801Z,4.22
2022-11-19T14:38:24.386Z,4.68
2022-11-19T14:41:03.410Z,5.53
2022-11-19T14:43:48.321Z,5.80
2022-11-19T14:46:15.123Z,5.10
2022-11-19T14:48:41.468Z,4.75
2022-11-19T14:51:17.613Z,5.75
2022-11-19T14:53:50.164Z,5.10
2022-11-19T14:56:20.887Z,4.45
2022-11-19T14:58:53.169Z,5.03
2022-11-19T15:01:22.555Z,4.18
2022-11-19T15:03:54.434Z,4.30
2022-11-19T15:06:21.794Z,4.70
2022-11-19T15:08:51.617Z,4.85
2022-11-19T15:11:18.946Z,5.50
2022-11-19T15:14:09.067Z,5.68
2022-11-19T15:16:36.438Z,5.10
2022-11-19T15:19:12.834Z,6.45
2022-11-19T15:22:19.277Z,6.25
2022-11-19T15:24:48.836Z,5.27
2022-11-19T15:27:49.303Z,5.03
2022-11-19T15:30:32.342Z,5.28
2022-11-19T15:33:33.191Z,5.55
2022-11-19T15:36:21.682Z,9.05
2022-11-19T15:38:58.034Z,6.13
2022-11-19T15:41:26.734Z,6.35
2022-11-19T15:43:59.435Z,6.22
2022-11-19T15:46:45.399Z,5.60
2022-11-19T15:49:22.063Z,5.85
2022-11-19T15:52:03.829Z,5.83
2022-11-19T15:54:35.052Z,5.22
2022-11-19T15:57:16.473Z,6.13
2022-11-19T15:59:47.755Z,5.05
2022-11-19T16:02:38.455Z,5.00
2022-11-19T16:05:06.298Z,4.07
2022-11-19T16:07:33.365Z,5.63
2022-11-19T16:10:00.297Z,5.70
2022-11-19T16:12:46.854Z,5.43
2022-11-19T16:15:40.138Z,5.63
2022-11-19T16:18:14.213Z,5.07
2022-11-19T16:20:42.243Z,4.85
2022-11-19T16:23:10.750Z,4.53
2022-11-19T16:25:43.166Z,6.38
2022-11-19T16:28:14.193Z,5.40
2022-11-19T16:30:49.995Z,5.60
2022-11-19T16:33:20.760Z,4.70
2022-11-19T16:35:52.581Z,5.70
2022-11-19T16:38:26.246Z,4.97
2022-11-19T16:41:12.540Z,4.43
2022-11-19T16:43:43.662Z,4.20
2022-11-19T16:46:14.868Z,3.92
2022-11-19T16:48:50.443Z,3.85
2022-11-19T16:52:02.983Z,4.70
2022-11-19T16:54:46.486Z,4.90
2022-11-19T16:57:21.797Z,4.10
2022-11-19T16:59:51.015Z,4.40
2022-11-19T17:02:19.848Z,4.80
2022-11-19T17:04:49.305Z,5.07
2022-11-19T17:07:27.246Z,7.07
2022-11-19T17:10:12.250Z,6.13
2022-11-19T17:12:53.058Z,6.38
2022-11-19T17:15:41.049Z,6.82
2022-11-19T17:18:31.869Z,5.95
2022-11-19T17:21:27.677Z,6.63
2022-11-19T17:23:54.322Z,7.43
2022-11-19T17:26:25.599Z,8.93
2022-11-19T17:28:59.919Z,8.35
2022-11-19T17:31:27.905Z,6.80
2022-11-19T17:34:06.473Z,6.63
2022-11-19T17:36:33.105Z,6.70
2022-11-19T17:38:59.446Z,6.70
2022-11-19T17:41:46.508Z,6.80
2022-11-19T17:44:34.413Z,6.97
2022-11-19T17:47:21.360Z,6.35
2022-11-19T17:49:48.833Z,6.80
2022-11-19T17:52:26.933Z,6.90
2022-11-19T17:54:56.711Z,10.43
2022-11-19T17:57:23.147Z,8.75
2022-11-19T17:59:49.538Z,6.95
2022-11-19T18:02:18.105Z,7.67
2022-11-19T18:04:46.032Z,7.07
2022-11-19T18:07:13.573Z,7.82
2022-11-19T18:09:40.737Z,8.55
2022-11-19T18:12:14.413Z,9.75
2022-11-19T18:14:41.190Z,9.07
2022-11-19T18:17:10.658Z,9.07
2022-11-19T18:19:37.222Z,8.60
2022-11-19T18:22:03.678Z,7.55
2022-11-19T18:24:30.165Z,7.80
2022-11-19T18:26:56.555Z,8.37
2022-11-19T18:29:23.598Z,8.98
2022-11-19T18:31:53.851Z,8.23
2022-11-19T18:34:23.098Z,7.75
2022-11-19T18:36:50.055Z,8.73
2022-11-19T18:39:17.064Z,9.10
2022-11-19T18:41:43.762Z,9.63
2022-11-19T18:44:33.427Z,9.20
2022-11-19T18:47:02.164Z,8.15
2022-11-19T18:49:28.953Z,7.47
2022-11-19T18:51:55.445Z,8.00
2022-11-19T18:54:22.135Z,8.85
2022-11-19T18:56:48.563Z,9.32
2022-11-19T18:59:15.165Z,10.13
2022-11-19T19:01:41.699Z,9.48
2022-11-19T19:04:10.819Z,11.40
2022-11-19T19:06:37.240Z,9.25
2022-11-19T19:09:03.775Z,10.48
2022-11-19T19:11:48.623Z,9.07
2022-11-19T19:14:15.031Z,10.13
2022-11-19T19:16:41.708Z,9.50
2022-11-19T19:19:10.354Z,10.25
2022-11-19T19:21:36.778Z,9.02
2022-11-19T19:24:05.239Z,9.70
2022-11-19T19:26:32.078Z,8.77
2022-11-19T19:28:58.430Z,9.53
2022-11-19T19:31:25.294Z,8.93
2022-11-19T19:33:52.733Z,9.07
2022-11-19T19:36:21.632Z,8.73
2022-11-19T19:38:48.014Z,8.98
2022-11-19T19:41:19.471Z,9.43
2022-11-19T19:43:47.546Z,9.73
2022-11-19T19:46:16.347Z,9.00
2022-11-19T19:48:43.881Z,8.63
2022-11-19T19:51:11.865Z,9.35
2022-11-19T19:53:39.453Z,10.07
2022-11-19T19:56:09.538Z,10.60
2022-11-19T19:58:38.118Z,9.38
2022-11-19T20:01:10.306Z,9.90
2022-11-19T20:03:36.975Z,9.60
2022-11-19T20:06:05.332Z,10.97
2022-11-19T20:08:31.959Z,12.52
2022-11-19T20:11:12.113Z,9.18
2022-11-19T20:13:39.677Z,9.48
2022-11-19T20:16:14.601Z,9.20
2022-11-19T20:18:45.309Z,7.97
2022-11-19T20:21:13.962Z,9.35
2022-11-19T20:23:41.753Z,8.85
2022-11-19T20:26:12.198Z,9.23
2022-11-19T20:28:38.723Z,9.57
2022-11-19T20:31:11.823Z,9.27
2022-11-19T20:33:39.440Z,8.52
2022-11-19T20:36:07.504Z,8.10
2022-11-19T20:38:38.374Z,9.68
2022-11-19T20:41:06.588Z,8.75
2022-11-19T20:44:12.893Z,9.30
2022-11-19T20:46:39.239Z,8.52
2022-11-19T20:49:05.610Z,8.75
2022-11-19T20:51:33.737Z,12.48
2022-11-19T20:54:00.134Z,10.85
2022-11-19T20:56:26.472Z,9.03
2022-11-19T20:58:52.893Z,9.25
2022-11-19T21:01:19.231Z,9.05
2022-11-19T21:03:45.637Z,9.15
2022-11-19T21:06:11.983Z,8.63
2022-11-19T21:08:38.562Z,8.57
2022-11-19T21:11:09.020Z,9.38
2022-11-19T21:13:36.529Z,10.63
2022-11-19T21:16:08.971Z,11.15
2022-11-19T21:18:37.028Z,11.32
2022-11-19T21:21:06.787Z,10.67
2022-11-19T21:23:34.296Z,11.40
2022-11-19T21:26:06.655Z,10.77
2022-11-19T21:28:33.860Z,10.18
2022-11-19T21:31:00.544Z,10.60
2022-11-19T21:33:27.075Z,10.00
2022-11-19T21:35:57.813Z,11.52
2022-11-19T21:38:25.083Z,10.68
2022-11-19T21:40:53.264Z,10.77
2022-11-19T21:43:20.913Z,13.60
2022-11-19T21:45:48.858Z,17.70
2022-11-19T21:48:16.013Z,12.10
2022-11-19T21:50:42.486Z,12.07
2022-11-19T21:53:10.054Z,13.68
2022-11-19T21:55:36.553Z,13.20
2022-11-19T21:58:04.917Z,15.97
2022-11-19T22:00:32.459Z,15.55
2022-11-19T22:02:59.237Z,12.32
2022-11-19T22:05:26.823Z,12.90
2022-11-19T22:07:53.575Z,11.82
2022-11-19T22:10:20.415Z,11.53
2022-11-19T22:12:46.917Z,11.70
2022-11-19T22:15:13.322Z,11.88
2022-11-19T22:17:39.746Z,12.57
2022-11-19T22:20:07.078Z,12.23
2022-11-19T22:22:33.414Z,12.43
2022-11-19T22:24:59.744Z,12.52
2022-11-19T22:27:28.537Z,10.82
2022-11-19T22:29:56.695Z,10.57
2022-11-19T22:32:23.189Z,10.57
2022-11-19T22:34:49.522Z,10.73
2022-11-19T22:37:15.874Z,11.60
2022-11-19T22:39:43.798Z,13.13
2022-11-19T22:42:10.300Z,10.30
2022-11-19T22:44:36.736Z,10.45
2022-11-19T22:47:03.153Z,14.67
2022-11-19T22:49:29.484Z,13.80
2022-11-19T22:51:55.893Z,13.50
2022-11-19T22:54:22.279Z,10.75
2022-11-19T22:56:48.621Z,12.23
2022-11-19T22:59:16.093Z,11.30
2022-11-19T23:01:42.517Z,14.13
2022-11-19T23:04:08.999Z,11.40
2022-11-19T23:06:36.997Z,11.93
2022-11-19T23:09:05.318Z,11.63
2022-11-19T23:11:50.226Z,13.87
2022-11-19T23:14:18.637Z,13.43
2022-11-19T23:16:45.089Z,12.27
2022-11-19T23:19:13.100Z,12.02
2022-11-19T23:21:40.216Z,11.60
2022-11-19T23:24:07.346Z,11.00
2022-11-19T23:26:34.620Z,10.05
2022-11-19T23:29:02.347Z,11.75
2022-11-19T23:31:34.245Z,12.07
2022-11-19T23:34:00.743Z,11.00
2022-11-19T23:36:35.022Z,10.37
2022-11-19T23:39:01.806Z,11.18
2022-11-19T23:41:30.694Z,11.10
2022-11-19T23:43:57.114Z,10.25
2022-11-19T23:46:32.443Z,10.60
2022-11-19T23:48:59.268Z,10.30
2022-11-19T23:51:28.706Z,9.82
2022-11-19T23:53:55.482Z,10.93
2022-11-19T23:56:23.196Z,9.68
2022-11-19T23:58:50.302Z,10.32
